sensor_id;sensor_type;location;lat;lon;timestamp;pressure;altitude;pressure_sealevel;temperature;humidity
37200;BME280;23096;50.892;16.746;2023-08-06T00:00:53;98299.88;;;14.54;82.43
37200;BME280;23096;50.892;16.746;2023-08-06T00:03:18;98293.16;;;14.54;82.54
37200;BME280;23096;50.892;16.746;2023-08-06T00:05:44;98285.61;;;14.53;82.55
37200;BME280;23096;50.892;16.746;2023-08-06T00:08:09;98278.83;;;14.51;82.56
37200;BME280;23096;50.892;16.746;2023-08-06T00:10:35;98276.09;;;14.50;82.61
37200;BME280;23096;50.892;16.746;2023-08-06T00:13:00;98273.56;;;14.49;82.55
37200;BME280;23096;50.892;16.746;2023-08-06T00:15:28;98270.94;;;14.47;82.54
37200;BME280;23096;50.892;16.746;2023-08-06T00:17:53;98263.69;;;14.44;82.49
37200;BME280;23096;50.892;16.746;2023-08-06T00:20:19;98257.19;;;14.44;82.60
37200;BME280;23096;50.892;16.746;2023-08-06T00:22:45;98250.98;;;14.43;82.52
37200;BME280;23096;50.892;16.746;2023-08-06T00:25:11;98245.00;;;14.42;82.61
37200;BME280;23096;50.892;16.746;2023-08-06T00:27:36;98239.70;;;14.42;82.67
37200;BME280;23096;50.892;16.746;2023-08-06T00:30:02;98237.06;;;14.42;82.73
37200;BME280;23096;50.892;16.746;2023-08-06T00:32:28;98232.05;;;14.42;82.78
37200;BME280;23096;50.892;16.746;2023-08-06T00:34:53;98226.74;;;14.41;82.79
37200;BME280;23096;50.892;16.746;2023-08-06T00:37:19;98224.16;;;14.41;82.71
37200;BME280;23096;50.892;16.746;2023-08-06T00:39:45;98205.76;;;14.43;82.85
37200;BME280;23096;50.892;16.746;2023-08-06T00:42:11;98179.03;;;14.42;82.82
37200;BME280;23096;50.892;16.746;2023-08-06T00:44:37;98178.73;;;14.38;82.75
37200;BME280;23096;50.892;16.746;2023-08-06T00:47:03;98180.90;;;14.36;82.80
37200;BME280;23096;50.892;16.746;2023-08-06T00:49:28;98178.02;;;14.36;82.84
37200;BME280;23096;50.892;16.746;2023-08-06T00:51:56;98175.50;;;14.34;82.74
37200;BME280;23096;50.892;16.746;2023-08-06T00:54:22;98172.80;;;14.34;82.83
37200;BME280;23096;50.892;16.746;2023-08-06T00:56:48;98166.05;;;14.34;82.80
37200;BME280;23096;50.892;16.746;2023-08-06T00:59:14;98161.59;;;14.33;82.77
37200;BME280;23096;50.892;16.746;2023-08-06T01:01:40;98152.95;;;14.31;82.79
37200;BME280;23096;50.892;16.746;2023-08-06T01:04:05;98155.87;;;14.31;82.85
37200;BME280;23096;50.892;16.746;2023-08-06T01:07:01;98153.60;;;14.31;82.88
37200;BME280;23096;50.892;16.746;2023-08-06T01:09:50;98150.56;;;14.30;82.95
37200;BME280;23096;50.892;16.746;2023-08-06T01:12:28;98150.73;;;14.30;82.89
37200;BME280;23096;50.892;16.746;2023-08-06T01:15:25;98147.41;;;14.31;82.83
37200;BME280;23096;50.892;16.746;2023-08-06T01:17:53;98141.62;;;14.30;82.90
37200;BME280;23096;50.892;16.746;2023-08-06T01:20:20;98141.58;;;14.28;82.95
37200;BME280;23096;50.892;16.746;2023-08-06T01:22:45;98144.70;;;14.27;82.97
37200;BME280;23096;50.892;16.746;2023-08-06T01:25:13;98144.35;;;14.27;83.00
37200;BME280;23096;50.892;16.746;2023-08-06T01:27:44;98143.69;;;14.27;82.97
37200;BME280;23096;50.892;16.746;2023-08-06T01:30:13;98146.81;;;14.29;82.96
37200;BME280;23096;50.892;16.746;2023-08-06T01:32:44;98148.33;;;14.30;82.97
37200;BME280;23096;50.892;16.746;2023-08-06T01:35:15;98148.88;;;14.30;82.81
37200;BME280;23096;50.892;16.746;2023-08-06T01:37:41;98155.72;;;14.31;82.94
37200;BME280;23096;50.892;16.746;2023-08-06T01:40:11;98155.13;;;14.32;83.07
37200;BME280;23096;50.892;16.746;2023-08-06T01:42:37;98156.52;;;14.32;83.02
37200;BME280;23096;50.892;16.746;2023-08-06T01:45:04;98152.61;;;14.33;82.99
37200;BME280;23096;50.892;16.746;2023-08-06T01:47:30;98131.04;;;14.33;82.90
37200;BME280;23096;50.892;16.746;2023-08-06T01:49:56;98112.82;;;14.32;82.91
37200;BME280;23096;50.892;16.746;2023-08-06T01:52:22;98098.59;;;14.30;82.98
37200;BME280;23096;50.892;16.746;2023-08-06T01:54:47;98080.03;;;14.28;82.96
37200;BME280;23096;50.892;16.746;2023-08-06T01:57:13;98064.78;;;14.27;82.94
37200;BME280;23096;50.892;16.746;2023-08-06T01:59:38;98051.33;;;14.24;83.00
37200;BME280;23096;50.892;16.746;2023-08-06T02:02:04;98061.40;;;14.23;83.00
37200;BME280;23096;50.892;16.746;2023-08-06T02:04:30;98061.70;;;14.24;83.15
37200;BME280;23096;50.892;16.746;2023-08-06T02:06:55;98044.77;;;14.24;83.15
37200;BME280;23096;50.892;16.746;2023-08-06T02:09:21;98034.35;;;14.22;83.02
37200;BME280;23096;50.892;16.746;2023-08-06T02:11:46;98034.83;;;14.20;83.03
37200;BME280;23096;50.892;16.746;2023-08-06T02:14:12;98031.99;;;14.18;82.97
37200;BME280;23096;50.892;16.746;2023-08-06T02:16:38;98024.02;;;14.16;83.01
37200;BME280;23096;50.892;16.746;2023-08-06T02:19:03;98017.87;;;14.15;83.07
37200;BME280;23096;50.892;16.746;2023-08-06T02:21:29;98006.70;;;14.14;83.08
37200;BME280;23096;50.892;16.746;2023-08-06T02:23:55;97997.92;;;14.14;83.05
37200;BME280;23096;50.892;16.746;2023-08-06T02:26:20;98000.38;;;14.13;83.17
37200;BME280;23096;50.892;16.746;2023-08-06T02:28:46;98001.48;;;14.12;83.12
37200;BME280;23096;50.892;16.746;2023-08-06T02:31:12;98004.80;;;14.12;83.12
37200;BME280;23096;50.892;16.746;2023-08-06T02:33:38;98000.55;;;14.11;83.08
37200;BME280;23096;50.892;16.746;2023-08-06T02:36:04;97997.81;;;14.10;83.12
37200;BME280;23096;50.892;16.746;2023-08-06T02:38:30;97993.69;;;14.10;83.25
37200;BME280;23096;50.892;16.746;2023-08-06T02:40:56;97990.63;;;14.09;83.34
37200;BME280;23096;50.892;16.746;2023-08-06T02:43:22;97992.05;;;14.09;83.24
37200;BME280;23096;50.892;16.746;2023-08-06T02:45:47;97988.17;;;14.07;83.25
37200;BME280;23096;50.892;16.746;2023-08-06T02:48:13;97981.34;;;14.06;83.16
37200;BME280;23096;50.892;16.746;2023-08-06T02:50:39;97976.73;;;14.05;83.28
37200;BME280;23096;50.892;16.746;2023-08-06T02:53:08;97971.02;;;14.03;83.16
37200;BME280;23096;50.892;16.746;2023-08-06T02:55:35;97965.34;;;14.03;83.20
37200;BME280;23096;50.892;16.746;2023-08-06T02:58:03;97954.20;;;14.02;83.35
37200;BME280;23096;50.892;16.746;2023-08-06T03:00:30;97944.90;;;14.01;83.43
37200;BME280;23096;50.892;16.746;2023-08-06T03:02:55;97953.73;;;14.00;83.40
37200;BME280;23096;50.892;16.746;2023-08-06T03:05:34;97959.14;;;13.99;83.29
37200;BME280;23096;50.892;16.746;2023-08-06T03:07:59;97964.14;;;14.00;83.33
37200;BME280;23096;50.892;16.746;2023-08-06T03:10:26;97964.52;;;13.99;83.39
37200;BME280;23096;50.892;16.746;2023-08-06T03:12:52;97966.70;;;14.00;83.37
37200;BME280;23096;50.892;16.746;2023-08-06T03:15:18;97965.20;;;13.99;83.41
37200;BME280;23096;50.892;16.746;2023-08-06T03:17:44;97960.56;;;13.99;83.47
37200;BME280;23096;50.892;16.746;2023-08-06T03:20:10;97954.70;;;13.99;83.49
37200;BME280;23096;50.892;16.746;2023-08-06T03:22:36;97953.48;;;13.99;83.42
37200;BME280;23096;50.892;16.746;2023-08-06T03:25:03;97946.63;;;13.98;83.32
37200;BME280;23096;50.892;16.746;2023-08-06T03:27:28;97941.96;;;13.98;83.42
37200;BME280;23096;50.892;16.746;2023-08-06T03:29:54;97942.17;;;13.98;83.43
37200;BME280;23096;50.892;16.746;2023-08-06T03:32:22;97938.94;;;13.97;83.56
37200;BME280;23096;50.892;16.746;2023-08-06T03:34:47;97938.59;;;13.97;83.51
37200;BME280;23096;50.892;16.746;2023-08-06T03:37:13;97938.02;;;13.96;83.52
37200;BME280;23096;50.892;16.746;2023-08-06T03:39:39;97942.07;;;13.94;83.49
37200;BME280;23096;50.892;16.746;2023-08-06T03:42:05;97943.39;;;13.95;83.34
37200;BME280;23096;50.892;16.746;2023-08-06T03:44:31;97946.65;;;13.95;83.41
37200;BME280;23096;50.892;16.746;2023-08-06T03:46:56;97945.97;;;13.95;83.49
37200;BME280;23096;50.892;16.746;2023-08-06T03:49:22;97948.03;;;13.95;83.51
37200;BME280;23096;50.892;16.746;2023-08-06T03:51:47;97942.90;;;13.95;83.60
37200;BME280;23096;50.892;16.746;2023-08-06T03:54:13;97939.03;;;13.96;83.58
37200;BME280;23096;50.892;16.746;2023-08-06T03:56:38;97934.70;;;13.96;83.50
37200;BME280;23096;50.892;16.746;2023-08-06T03:59:04;97929.23;;;13.95;83.57
37200;BME280;23096;50.892;16.746;2023-08-06T04:01:30;97920.38;;;13.93;83.56
37200;BME280;23096;50.892;16.746;2023-08-06T04:03:55;97918.28;;;13.91;83.52
37200;BME280;23096;50.892;16.746;2023-08-06T04:06:21;97912.55;;;13.89;83.56
37200;BME280;23096;50.892;16.746;2023-08-06T04:08:46;97911.10;;;13.88;83.50
37200;BME280;23096;50.892;16.746;2023-08-06T04:11:12;97910.86;;;13.86;83.57
37200;BME280;23096;50.892;16.746;2023-08-06T04:13:43;97910.34;;;13.86;83.64
37200;BME280;23096;50.892;16.746;2023-08-06T04:16:09;97911.86;;;13.84;83.60
37200;BME280;23096;50.892;16.746;2023-08-06T04:18:35;97906.77;;;13.83;83.64
37200;BME280;23096;50.892;16.746;2023-08-06T04:21:01;97902.35;;;13.81;83.67
37200;BME280;23096;50.892;16.746;2023-08-06T04:23:27;97908.86;;;13.79;83.59
37200;BME280;23096;50.892;16.746;2023-08-06T04:25:58;97915.73;;;13.77;83.56
37200;BME280;23096;50.892;16.746;2023-08-06T04:28:25;97915.42;;;13.77;83.68
37200;BME280;23096;50.892;16.746;2023-08-06T04:30:52;97911.16;;;13.76;83.57
37200;BME280;23096;50.892;16.746;2023-08-06T04:33:19;97908.25;;;13.76;83.65
37200;BME280;23096;50.892;16.746;2023-08-06T04:35:45;97903.80;;;13.75;83.61
37200;BME280;23096;50.892;16.746;2023-08-06T04:38:11;97891.73;;;13.75;83.64
37200;BME280;23096;50.892;16.746;2023-08-06T04:40:37;97887.16;;;13.74;83.59
37200;BME280;23096;50.892;16.746;2023-08-06T04:43:03;97885.06;;;13.72;83.63
37200;BME280;23096;50.892;16.746;2023-08-06T04:45:30;97888.45;;;13.73;83.72
37200;BME280;23096;50.892;16.746;2023-08-06T04:47:55;97892.04;;;13.73;83.76
37200;BME280;23096;50.892;16.746;2023-08-06T04:50:21;97891.91;;;13.73;83.74
37200;BME280;23096;50.892;16.746;2023-08-06T04:52:46;97893.02;;;13.74;83.74
37200;BME280;23096;50.892;16.746;2023-08-06T04:55:12;97887.86;;;13.73;83.68
37200;BME280;23096;50.892;16.746;2023-08-06T04:57:37;97885.21;;;13.72;83.63
37200;BME280;23096;50.892;16.746;2023-08-06T05:00:05;97873.55;;;13.71;83.73
37200;BME280;23096;50.892;16.746;2023-08-06T05:02:30;97868.04;;;13.71;83.69
37200;BME280;23096;50.892;16.746;2023-08-06T05:04:58;97862.55;;;13.70;83.74
37200;BME280;23096;50.892;16.746;2023-08-06T05:07:23;97855.73;;;13.69;83.78
37200;BME280;23096;50.892;16.746;2023-08-06T05:09:49;97846.56;;;13.67;83.78
37200;BME280;23096;50.892;16.746;2023-08-06T05:12:14;97844.15;;;13.67;83.84
37200;BME280;23096;50.892;16.746;2023-08-06T05:14:40;97847.48;;;13.66;83.94
37200;BME280;23096;50.892;16.746;2023-08-06T05:17:05;97843.79;;;13.65;83.78
37200;BME280;23096;50.892;16.746;2023-08-06T05:19:31;97841.61;;;13.63;83.88
37200;BME280;23096;50.892;16.746;2023-08-06T05:21:56;97844.90;;;13.63;83.79
37200;BME280;23096;50.892;16.746;2023-08-06T05:24:22;97844.80;;;13.62;83.96
37200;BME280;23096;50.892;16.746;2023-08-06T05:26:48;97844.29;;;13.62;83.81
37200;BME280;23096;50.892;16.746;2023-08-06T05:29:16;97845.25;;;13.60;83.98
37200;BME280;23096;50.892;16.746;2023-08-06T05:31:41;97850.48;;;13.59;83.99
37200;BME280;23096;50.892;16.746;2023-08-06T05:34:07;97853.66;;;13.61;84.04
37200;BME280;23096;50.892;16.746;2023-08-06T05:36:33;97867.54;;;13.62;84.08
37200;BME280;23096;50.892;16.746;2023-08-06T05:38:58;97867.02;;;13.62;84.00
37200;BME280;23096;50.892;16.746;2023-08-06T05:41:24;97873.95;;;13.65;84.07
37200;BME280;23096;50.892;16.746;2023-08-06T05:43:49;97871.34;;;13.65;84.07
37200;BME280;23096;50.892;16.746;2023-08-06T05:46:15;97862.16;;;13.66;84.14
37200;BME280;23096;50.892;16.746;2023-08-06T05:48:41;97853.67;;;13.66;84.07
37200;BME280;23096;50.892;16.746;2023-08-06T05:51:06;97858.35;;;13.66;84.16
37200;BME280;23096;50.892;16.746;2023-08-06T05:53:32;97867.61;;;13.67;84.17
37200;BME280;23096;50.892;16.746;2023-08-06T05:55:58;97873.13;;;13.67;84.16
37200;BME280;23096;50.892;16.746;2023-08-06T05:58:24;97866.39;;;13.67;84.11
37200;BME280;23096;50.892;16.746;2023-08-06T06:00:51;97857.42;;;13.67;84.21
37200;BME280;23096;50.892;16.746;2023-08-06T06:03:17;97850.06;;;13.66;84.18
37200;BME280;23096;50.892;16.746;2023-08-06T06:05:42;97851.08;;;13.66;84.12
37200;BME280;23096;50.892;16.746;2023-08-06T06:08:08;97865.27;;;13.66;84.22
37200;BME280;23096;50.892;16.746;2023-08-06T06:10:33;97878.67;;;13.66;84.23
37200;BME280;23096;50.892;16.746;2023-08-06T06:12:59;97894.13;;;13.68;84.28
37200;BME280;23096;50.892;16.746;2023-08-06T06:15:24;97893.55;;;13.69;84.30
37200;BME280;23096;50.892;16.746;2023-08-06T06:17:49;97879.37;;;13.69;84.38
37200;BME280;23096;50.892;16.746;2023-08-06T06:20:16;97869.14;;;13.70;84.28
37200;BME280;23096;50.892;16.746;2023-08-06T06:22:42;97855.28;;;13.68;84.21
37200;BME280;23096;50.892;16.746;2023-08-06T06:25:08;97843.79;;;13.67;84.25
37200;BME280;23096;50.892;16.746;2023-08-06T06:27:34;97840.75;;;13.66;84.30
37200;BME280;23096;50.892;16.746;2023-08-06T06:30:00;97831.67;;;13.65;84.25
37200;BME280;23096;50.892;16.746;2023-08-06T06:32:26;97837.95;;;13.64;84.23
37200;BME280;23096;50.892;16.746;2023-08-06T06:34:51;97847.23;;;13.65;84.26
37200;BME280;23096;50.892;16.746;2023-08-06T06:37:17;97855.66;;;13.65;84.33
37200;BME280;23096;50.892;16.746;2023-08-06T06:39:42;97855.13;;;13.65;84.38
37200;BME280;23096;50.892;16.746;2023-08-06T06:42:09;97848.54;;;13.66;84.32
37200;BME280;23096;50.892;16.746;2023-08-06T06:44:36;97828.20;;;13.66;84.17
37200;BME280;23096;50.892;16.746;2023-08-06T06:47:01;97806.98;;;13.65;84.28
37200;BME280;23096;50.892;16.746;2023-08-06T06:49:27;97792.84;;;13.65;84.18
37200;BME280;23096;50.892;16.746;2023-08-06T06:51:52;97780.62;;;13.65;84.40
37200;BME280;23096;50.892;16.746;2023-08-06T06:54:18;97776.28;;;13.65;84.41
37200;BME280;23096;50.892;16.746;2023-08-06T06:56:44;97777.67;;;13.65;84.36
37200;BME280;23096;50.892;16.746;2023-08-06T06:59:09;97787.43;;;13.66;84.40
37200;BME280;23096;50.892;16.746;2023-08-06T07:01:34;97806.52;;;13.67;84.44
37200;BME280;23096;50.892;16.746;2023-08-06T07:04:00;97815.64;;;13.67;84.42
37200;BME280;23096;50.892;16.746;2023-08-06T07:06:30;97823.53;;;13.68;84.35
37200;BME280;23096;50.892;16.746;2023-08-06T07:08:56;97820.71;;;13.69;84.42
37200;BME280;23096;50.892;16.746;2023-08-06T07:11:21;97817.39;;;13.70;84.43
37200;BME280;23096;50.892;16.746;2023-08-06T07:13:46;97815.63;;;13.70;84.34
37200;BME280;23096;50.892;16.746;2023-08-06T07:16:12;97813.54;;;13.70;84.42
37200;BME280;23096;50.892;16.746;2023-08-06T07:18:37;97811.09;;;13.71;84.44
37200;BME280;23096;50.892;16.746;2023-08-06T07:21:03;97802.56;;;13.72;84.32
37200;BME280;23096;50.892;16.746;2023-08-06T07:23:29;97790.70;;;13.71;84.39
37200;BME280;23096;50.892;16.746;2023-08-06T07:25:54;97778.16;;;13.71;84.55
37200;BME280;23096;50.892;16.746;2023-08-06T07:28:20;97771.80;;;13.70;84.44
37200;BME280;23096;50.892;16.746;2023-08-06T07:30:46;97771.95;;;13.71;84.47
37200;BME280;23096;50.892;16.746;2023-08-06T07:33:11;97770.88;;;13.71;84.49
37200;BME280;23096;50.892;16.746;2023-08-06T07:35:38;97777.08;;;13.71;84.50
37200;BME280;23096;50.892;16.746;2023-08-06T07:38:03;97782.09;;;13.71;84.52
37200;BME280;23096;50.892;16.746;2023-08-06T07:40:29;97777.96;;;13.71;84.64
37200;BME280;23096;50.892;16.746;2023-08-06T07:42:55;97774.31;;;13.71;84.58
37200;BME280;23096;50.892;16.746;2023-08-06T07:45:20;97777.76;;;13.71;84.59
37200;BME280;23096;50.892;16.746;2023-08-06T07:47:46;97773.57;;;13.72;84.52
37200;BME280;23096;50.892;16.746;2023-08-06T07:50:12;97772.70;;;13.72;84.59
37200;BME280;23096;50.892;16.746;2023-08-06T07:52:38;97765.77;;;13.73;84.66
37200;BME280;23096;50.892;16.746;2023-08-06T07:55:04;97770.14;;;13.74;84.62
37200;BME280;23096;50.892;16.746;2023-08-06T07:57:33;97758.41;;;13.74;84.64
37200;BME280;23096;50.892;16.746;2023-08-06T08:00:00;97760.02;;;13.76;84.78
37200;BME280;23096;50.892;16.746;2023-08-06T08:02:26;97754.83;;;13.76;84.67
37200;BME280;23096;50.892;16.746;2023-08-06T08:04:52;97759.33;;;13.76;84.56
37200;BME280;23096;50.892;16.746;2023-08-06T08:07:18;97760.23;;;13.75;84.52
37200;BME280;23096;50.892;16.746;2023-08-06T08:09:43;97762.14;;;13.75;84.64
37200;BME280;23096;50.892;16.746;2023-08-06T08:12:09;97767.25;;;13.76;84.66
37200;BME280;23096;50.892;16.746;2023-08-06T08:14:34;97761.49;;;13.77;84.57
37200;BME280;23096;50.892;16.746;2023-08-06T08:17:03;97758.87;;;13.77;84.61
37200;BME280;23096;50.892;16.746;2023-08-06T08:19:29;97756.64;;;13.77;84.72
37200;BME280;23096;50.892;16.746;2023-08-06T08:21:56;97756.65;;;13.77;84.67
37200;BME280;23096;50.892;16.746;2023-08-06T08:24:22;97757.71;;;13.76;84.71
37200;BME280;23096;50.892;16.746;2023-08-06T08:26:51;97759.83;;;13.76;84.67
37200;BME280;23096;50.892;16.746;2023-08-06T08:29:17;97767.81;;;13.78;84.75
37200;BME280;23096;50.892;16.746;2023-08-06T08:31:43;97769.85;;;13.78;84.71
37200;BME280;23096;50.892;16.746;2023-08-06T08:34:13;97772.23;;;13.79;84.82
37200;BME280;23096;50.892;16.746;2023-08-06T08:36:39;97768.04;;;13.79;84.85
37200;BME280;23096;50.892;16.746;2023-08-06T08:39:04;97766.32;;;13.79;84.82
37200;BME280;23096;50.892;16.746;2023-08-06T08:41:31;97765.83;;;13.79;84.66
37200;BME280;23096;50.892;16.746;2023-08-06T08:43:58;97765.28;;;13.79;84.77
37200;BME280;23096;50.892;16.746;2023-08-06T08:46:24;97760.77;;;13.80;84.81
37200;BME280;23096;50.892;16.746;2023-08-06T08:48:51;97756.80;;;13.80;84.75
37200;BME280;23096;50.892;16.746;2023-08-06T08:51:17;97744.84;;;13.81;84.71
37200;BME280;23096;50.892;16.746;2023-08-06T08:53:44;97738.64;;;13.81;84.86
37200;BME280;23096;50.892;16.746;2023-08-06T08:56:12;97733.36;;;13.82;84.87
37200;BME280;23096;50.892;16.746;2023-08-06T08:58:39;97725.56;;;13.83;84.91
37200;BME280;23096;50.892;16.746;2023-08-06T09:01:06;97718.48;;;13.83;84.85
37200;BME280;23096;50.892;16.746;2023-08-06T09:03:33;97708.21;;;13.81;84.77
37200;BME280;23096;50.892;16.746;2023-08-06T09:06:01;97704.06;;;13.84;84.75
37200;BME280;23096;50.892;16.746;2023-08-06T09:08:36;97701.55;;;13.85;84.81
37200;BME280;23096;50.892;16.746;2023-08-06T09:11:02;97695.56;;;13.87;84.87
37200;BME280;23096;50.892;16.746;2023-08-06T09:13:29;97696.86;;;13.88;84.90
37200;BME280;23096;50.892;16.746;2023-08-06T09:15:55;97697.73;;;13.90;84.92
37200;BME280;23096;50.892;16.746;2023-08-06T09:18:27;97699.38;;;13.92;84.86
37200;BME280;23096;50.892;16.746;2023-08-06T09:21:13;97698.46;;;13.92;84.89
37200;BME280;23096;50.892;16.746;2023-08-06T09:23:39;97700.48;;;13.93;84.96
37200;BME280;23096;50.892;16.746;2023-08-06T09:26:04;97701.67;;;13.93;84.92
37200;BME280;23096;50.892;16.746;2023-08-06T09:28:39;97696.12;;;13.94;84.99
37200;BME280;23096;50.892;16.746;2023-08-06T09:31:08;97694.00;;;13.95;84.94
37200;BME280;23096;50.892;16.746;2023-08-06T09:33:36;97692.84;;;13.96;84.91
37200;BME280;23096;50.892;16.746;2023-08-06T09:36:09;97693.83;;;13.97;84.87
37200;BME280;23096;50.892;16.746;2023-08-06T09:38:38;97691.91;;;13.97;84.89
37200;BME280;23096;50.892;16.746;2023-08-06T09:41:07;97692.06;;;13.97;84.89
37200;BME280;23096;50.892;16.746;2023-08-06T09:43:43;97687.94;;;13.97;84.88
37200;BME280;23096;50.892;16.746;2023-08-06T09:46:14;97690.02;;;13.97;84.91
37200;BME280;23096;50.892;16.746;2023-08-06T09:48:45;97688.93;;;13.98;84.96
37200;BME280;23096;50.892;16.746;2023-08-06T09:51:10;97685.59;;;13.99;84.93
37200;BME280;23096;50.892;16.746;2023-08-06T09:53:40;97687.73;;;13.98;84.96
37200;BME280;23096;50.892;16.746;2023-08-06T09:56:13;97686.68;;;13.98;84.93
37200;BME280;23096;50.892;16.746;2023-08-06T09:58:41;97685.23;;;13.99;84.98
37200;BME280;23096;50.892;16.746;2023-08-06T10:01:07;97688.55;;;14.01;85.02
37200;BME280;23096;50.892;16.746;2023-08-06T10:03:33;97688.67;;;14.02;84.94
37200;BME280;23096;50.892;16.746;2023-08-06T10:05:59;97690.33;;;14.03;85.02
37200;BME280;23096;50.892;16.746;2023-08-06T10:08:27;97695.42;;;14.04;84.91
37200;BME280;23096;50.892;16.746;2023-08-06T10:10:53;97696.27;;;14.04;84.94
37200;BME280;23096;50.892;16.746;2023-08-06T10:13:20;97695.86;;;14.05;84.78
37200;BME280;23096;50.892;16.746;2023-08-06T10:15:47;97691.16;;;14.06;84.99
37200;BME280;23096;50.892;16.746;2023-08-06T10:18:14;97696.25;;;14.07;84.94
37200;BME280;23096;50.892;16.746;2023-08-06T10:20:43;97694.16;;;14.07;84.93
37200;BME280;23096;50.892;16.746;2023-08-06T10:23:08;97695.60;;;14.09;84.93
37200;BME280;23096;50.892;16.746;2023-08-06T10:25:35;97695.85;;;14.10;85.07
37200;BME280;23096;50.892;16.746;2023-08-06T10:28:08;97692.83;;;14.11;85.07
37200;BME280;23096;50.892;16.746;2023-08-06T10:30:41;97691.52;;;14.13;85.08
37200;BME280;23096;50.892;16.746;2023-08-06T10:33:07;97688.28;;;14.14;85.05
37200;BME280;23096;50.892;16.746;2023-08-06T10:35:46;97683.73;;;14.15;84.99
37200;BME280;23096;50.892;16.746;2023-08-06T10:38:20;97685.91;;;14.16;84.94
37200;BME280;23096;50.892;16.746;2023-08-06T10:45:55;97681.85;;;14.17;85.04
37200;BME280;23096;50.892;16.746;2023-08-06T10:48:33;97679.20;;;14.19;85.08
37200;BME280;23096;50.892;16.746;2023-08-06T10:51:00;97678.80;;;14.19;85.05
37200;BME280;23096;50.892;16.746;2023-08-06T10:53:26;97682.44;;;14.19;84.99
37200;BME280;23096;50.892;16.746;2023-08-06T10:55:52;97678.16;;;14.21;85.02
37200;BME280;23096;50.892;16.746;2023-08-06T10:58:18;97675.82;;;14.22;85.06
37200;BME280;23096;50.892;16.746;2023-08-06T11:00:43;97676.38;;;14.24;85.01
37200;BME280;23096;50.892;16.746;2023-08-06T11:03:09;97672.27;;;14.26;85.00
37200;BME280;23096;50.892;16.746;2023-08-06T11:05:35;97665.92;;;14.30;85.11
37200;BME280;23096;50.892;16.746;2023-08-06T11:08:01;97664.66;;;14.33;85.06
37200;BME280;23096;50.892;16.746;2023-08-06T11:10:27;97660.62;;;14.37;85.00
37200;BME280;23096;50.892;16.746;2023-08-06T11:12:53;97659.16;;;14.40;85.21
37200;BME280;23096;50.892;16.746;2023-08-06T11:15:20;97654.77;;;14.44;85.16
37200;BME280;23096;50.892;16.746;2023-08-06T11:17:46;97653.11;;;14.47;85.23
37200;BME280;23096;50.892;16.746;2023-08-06T11:20:12;97654.70;;;14.52;85.25
37200;BME280;23096;50.892;16.746;2023-08-06T11:22:41;97650.73;;;14.54;85.23
37200;BME280;23096;50.892;16.746;2023-08-06T11:25:20;97652.11;;;14.57;85.18
37200;BME280;23096;50.892;16.746;2023-08-06T11:27:55;97651.28;;;14.59;85.16
37200;BME280;23096;50.892;16.746;2023-08-06T11:30:21;97653.89;;;14.61;85.18
37200;BME280;23096;50.892;16.746;2023-08-06T11:32:47;97657.46;;;14.62;85.17
37200;BME280;23096;50.892;16.746;2023-08-06T11:35:17;97663.55;;;14.64;85.11
37200;BME280;23096;50.892;16.746;2023-08-06T11:37:45;97662.51;;;14.64;85.12
37200;BME280;23096;50.892;16.746;2023-08-06T11:40:11;97659.44;;;14.63;85.11
37200;BME280;23096;50.892;16.746;2023-08-06T11:42:37;97663.21;;;14.63;85.18
37200;BME280;23096;50.892;16.746;2023-08-06T11:45:04;97664.67;;;14.65;85.07
37200;BME280;23096;50.892;16.746;2023-08-06T11:47:30;97664.83;;;14.65;85.06
37200;BME280;23096;50.892;16.746;2023-08-06T11:49:56;97663.16;;;14.64;85.04
37200;BME280;23096;50.892;16.746;2023-08-06T11:52:25;97672.98;;;14.65;85.00
37200;BME280;23096;50.892;16.746;2023-08-06T11:55:03;97670.23;;;14.64;85.07
37200;BME280;23096;50.892;16.746;2023-08-06T11:57:30;97669.65;;;14.65;85.08
37200;BME280;23096;50.892;16.746;2023-08-06T12:00:08;97670.73;;;14.67;85.09
37200;BME280;23096;50.892;16.746;2023-08-06T12:02:44;97670.22;;;14.67;85.07
37200;BME280;23096;50.892;16.746;2023-08-06T12:07:38;97672.19;;;14.68;85.22
37200;BME280;23096;50.892;16.746;2023-08-06T12:10:05;97669.18;;;14.71;85.18
37200;BME280;23096;50.892;16.746;2023-08-06T12:12:31;97675.80;;;14.73;85.22
37200;BME280;23096;50.892;16.746;2023-08-06T12:14:56;97677.38;;;14.75;85.14
37200;BME280;23096;50.892;16.746;2023-08-06T12:17:25;97680.80;;;14.75;85.13
37200;BME280;23096;50.892;16.746;2023-08-06T12:19:51;97683.00;;;14.76;85.11
37200;BME280;23096;50.892;16.746;2023-08-06T12:22:17;97686.88;;;14.78;85.06
37200;BME280;23096;50.892;16.746;2023-08-06T12:24:43;97689.73;;;14.79;85.04
37200;BME280;23096;50.892;16.746;2023-08-06T12:27:10;97692.40;;;14.78;85.07
37200;BME280;23096;50.892;16.746;2023-08-06T12:29:37;97691.85;;;14.78;85.04
37200;BME280;23096;50.892;16.746;2023-08-06T12:32:05;97692.27;;;14.80;85.07
37200;BME280;23096;50.892;16.746;2023-08-06T12:34:31;97689.46;;;14.80;85.19
37200;BME280;23096;50.892;16.746;2023-08-06T12:36:56;97697.05;;;14.81;85.05
37200;BME280;23096;50.892;16.746;2023-08-06T12:39:22;97698.87;;;14.79;84.93
37200;BME280;23096;50.892;16.746;2023-08-06T12:41:47;97699.14;;;14.80;85.03
37200;BME280;23096;50.892;16.746;2023-08-06T12:44:14;97699.24;;;14.81;84.94
37200;BME280;23096;50.892;16.746;2023-08-06T12:46:39;97703.85;;;14.80;85.00
37200;BME280;23096;50.892;16.746;2023-08-06T12:49:05;97706.86;;;14.79;85.02
37200;BME280;23096;50.892;16.746;2023-08-06T12:51:35;97713.46;;;14.78;84.94
37200;BME280;23096;50.892;16.746;2023-08-06T12:54:10;97716.27;;;14.78;84.96
37200;BME280;23096;50.892;16.746;2023-08-06T12:56:46;97720.59;;;14.75;84.90